createdAt,value
2018-09-26T00:02:27.185Z,92.60
2018-09-26T00:04:56.134Z,92.30
2018-09-26T00:07:24.968Z,92.10
2018-09-26T00:09:53.884Z,92.70
2018-09-26T00:12:22.773Z,92.50
2018-09-26T00:14:51.783Z,92.90
2018-09-26T00:17:20.750Z,93.20
2018-09-26T00:19:50.020Z,93.30
2018-09-26T00:22:18.860Z,93.40
2018-09-26T00:24:49.909Z,93.50
2018-09-26T00:27:18.701Z,93.20
2018-09-26T00:29:48.406Z,93.50
2018-09-26T00:32:17.610Z,94.40
2018-09-26T00:34:46.447Z,94.50
2018-09-26T00:37:15.409Z,93.90
2018-09-26T00:39:44.299Z,93.80
2018-09-26T00:42:13.325Z,94.40
2018-09-26T00:44:42.232Z,94.80
2018-09-26T00:47:11.083Z,95.00
2018-09-26T00:49:39.927Z,95.10
2018-09-26T00:52:08.900Z,94.70
2018-09-26T00:54:37.843Z,94.50
2018-09-26T00:57:06.769Z,93.80
2018-09-26T00:59:35.872Z,93.70
2018-09-26T01:02:04.902Z,94.00
2018-09-26T01:04:33.811Z,93.80
2018-09-26T01:07:02.836Z,93.50
2018-09-26T01:09:31.726Z,93.70
2018-09-26T01:12:00.835Z,93.40
2018-09-26T01:14:29.768Z,93.40
2018-09-26T01:16:58.785Z,93.70
2018-09-26T01:19:28.039Z,93.90
2018-09-26T01:21:56.954Z,93.60
2018-09-26T01:24:25.799Z,93.50
2018-09-26T01:26:54.924Z,93.60
2018-09-26T01:29:23.756Z,93.70
2018-09-26T01:31:52.572Z,93.30
2018-09-26T01:34:21.627Z,93.00
2018-09-26T01:36:50.518Z,93.40
2018-09-26T01:39:19.368Z,93.10
2018-09-26T01:41:48.160Z,93.50
2018-09-26T01:44:17.101Z,93.70
2018-09-26T01:46:46.005Z,93.60
2018-09-26T01:49:14.887Z,93.70
2018-09-26T01:51:43.731Z,94.20
2018-09-26T01:54:12.617Z,94.00
2018-09-26T01:56:41.487Z,94.40
2018-09-26T01:59:10.616Z,94.60
2018-09-26T02:01:39.514Z,94.80
2018-09-26T02:04:08.461Z,96.00
2018-09-26T02:06:37.377Z,95.50
2018-09-26T02:09:08.496Z,95.50
2018-09-26T02:11:37.830Z,95.20
2018-09-26T02:14:06.736Z,95.60
2018-09-26T02:16:35.675Z,95.20
2018-09-26T02:19:04.547Z,95.20
2018-09-26T02:21:33.488Z,95.20
2018-09-26T02:24:02.566Z,95.10
2018-09-26T02:26:31.940Z,95.30
2018-09-26T02:29:01.023Z,95.90
2018-09-26T02:31:29.910Z,95.40
2018-09-26T02:33:58.747Z,96.00
2018-09-26T02:36:27.664Z,97.50
2018-09-26T02:38:56.491Z,98.20
2018-09-26T02:41:25.719Z,99.50
2018-09-26T02:43:54.657Z,99.60
2018-09-26T02:46:24.581Z,99.90
2018-09-26T02:48:58.616Z,99.90
2018-09-26T02:51:27.433Z,99.90
2018-09-26T02:53:56.616Z,99.90
2018-09-26T02:56:25.713Z,99.90
2018-09-26T02:58:54.548Z,99.90
2018-09-26T03:01:23.371Z,99.90
2018-09-26T03:03:52.396Z,99.90
2018-09-26T03:06:21.449Z,99.90
2018-09-26T03:08:50.339Z,99.90
2018-09-26T03:11:19.299Z,99.90
2018-09-26T03:13:48.158Z,99.90
2018-09-26T03:16:17.791Z,99.90
2018-09-26T03:18:46.928Z,99.90
2018-09-26T03:21:16.170Z,99.90
2018-09-26T03:23:45.094Z,99.90
2018-09-26T03:26:13.945Z,99.90
2018-09-26T03:28:42.836Z,99.90
2018-09-26T03:31:11.647Z,99.90
2018-09-26T03:33:40.549Z,99.90
2018-09-26T03:36:09.428Z,99.90
2018-09-26T03:38:38.337Z,99.90
2018-09-26T03:41:07.256Z,99.90
2018-09-26T03:43:36.348Z,99.90
2018-09-26T03:46:05.511Z,99.90
2018-09-26T03:48:34.637Z,99.90
2018-09-26T03:51:03.611Z,99.90
2018-09-26T03:53:32.492Z,99.90
2018-09-26T03:56:01.593Z,99.90
2018-09-26T03:58:30.482Z,99.90
2018-09-26T04:00:59.508Z,99.90
2018-09-26T04:03:28.377Z,99.90
2018-09-26T04:05:57.419Z,99.90
2018-09-26T04:08:26.336Z,99.90
2018-09-26T04:10:55.279Z,99.90
2018-09-26T04:13:24.164Z,99.90
2018-09-26T04:15:54.140Z,99.90
2018-09-26T04:18:26.310Z,99.90
2018-09-26T04:20:55.977Z,99.90
2018-09-26T04:23:24.872Z,99.90
2018-09-26T04:25:53.761Z,99.90
2018-09-26T04:28:22.699Z,99.90
2018-09-26T04:30:51.751Z,99.90
2018-09-26T04:33:20.676Z,99.90
2018-09-26T04:35:49.530Z,99.90
2018-09-26T04:38:18.596Z,99.90
2018-09-26T04:40:47.476Z,99.90
2018-09-26T04:43:16.447Z,99.90
2018-09-26T04:45:45.521Z,99.90
2018-09-26T04:48:14.338Z,99.90
2018-09-26T04:50:43.405Z,99.90
2018-09-26T04:53:12.231Z,99.90
2018-09-26T04:55:41.237Z,99.90
2018-09-26T04:58:11.464Z,99.90
2018-09-26T05:00:40.989Z,99.90
2018-09-26T05:03:10.108Z,99.90
2018-09-26T05:05:38.937Z,99.90
2018-09-26T05:08:07.869Z,99.90
2018-09-26T05:10:36.657Z,99.90
2018-09-26T05:13:05.566Z,99.90
2018-09-26T05:15:34.668Z,99.90
2018-09-26T05:18:03.614Z,99.90
2018-09-26T05:20:32.704Z,99.90
2018-09-26T05:23:01.627Z,99.90
2018-09-26T05:25:30.584Z,99.90
2018-09-26T05:27:59.627Z,99.90
2018-09-26T05:30:28.637Z,99.90
2018-09-26T05:32:57.596Z,99.90
2018-09-26T05:35:26.466Z,99.90
2018-09-26T05:37:55.484Z,99.90
2018-09-26T05:40:24.307Z,99.90
2018-09-26T05:42:53.215Z,99.90
2018-09-26T05:45:22.110Z,99.90
2018-09-26T05:47:51.004Z,99.90
2018-09-26T05:50:19.945Z,99.90
2018-09-26T05:52:48.839Z,99.90
2018-09-26T05:55:17.704Z,99.90
2018-09-26T05:57:46.791Z,99.90
2018-09-26T06:00:15.702Z,99.90
2018-09-26T06:02:44.707Z,99.90
2018-09-26T06:05:13.575Z,99.90
2018-09-26T06:07:42.532Z,99.90
2018-09-26T06:10:11.395Z,99.90
2018-09-26T06:12:40.390Z,99.90
2018-09-26T06:15:09.140Z,99.90
2018-09-26T06:17:38.080Z,99.90
2018-09-26T06:20:07.464Z,99.90
2018-09-26T06:22:36.329Z,99.90
2018-09-26T06:25:05.428Z,99.90
2018-09-26T06:27:34.364Z,99.90
2018-09-26T06:30:03.489Z,99.90
2018-09-26T06:32:32.583Z,99.90
2018-09-26T06:35:01.547Z,99.90
2018-09-26T06:37:30.486Z,99.90
2018-09-26T06:39:59.383Z,99.90
2018-09-26T06:42:28.271Z,99.90
2018-09-26T06:44:57.158Z,99.90
2018-09-26T06:47:26.171Z,99.90
2018-09-26T06:49:55.355Z,99.90
2018-09-26T06:52:24.555Z,99.90
2018-09-26T06:54:54.403Z,99.90
2018-09-26T06:57:23.533Z,99.90
2018-09-26T06:59:52.403Z,99.90
2018-09-26T07:02:21.232Z,99.90
2018-09-26T07:04:50.037Z,99.90
2018-09-26T07:07:18.847Z,99.90
2018-09-26T07:09:47.692Z,99.90
2018-09-26T07:12:16.610Z,99.90
2018-09-26T07:14:46.499Z,99.90
2018-09-26T07:17:15.388Z,99.90
2018-09-26T07:19:44.361Z,99.90
2018-09-26T07:22:14.181Z,99.90
2018-09-26T07:24:43.156Z,99.90
2018-09-26T07:27:13.462Z,99.90
2018-09-26T07:29:43.199Z,99.90
2018-09-26T07:32:14.165Z,99.90
2018-09-26T07:34:43.011Z,99.90
2018-09-26T07:37:12.084Z,99.90
2018-09-26T07:39:40.927Z,99.90
2018-09-26T07:42:09.836Z,99.90
2018-09-26T07:44:38.661Z,99.90
2018-09-26T07:47:07.503Z,99.90
2018-09-26T07:49:36.441Z,99.90
2018-09-26T07:52:05.336Z,99.90
2018-09-26T07:54:34.183Z,99.90
2018-09-26T07:57:05.287Z,99.90
2018-09-26T07:59:34.133Z,99.90
2018-09-26T08:02:03.000Z,99.90
2018-09-26T08:04:32.471Z,99.90
2018-09-26T08:07:01.545Z,99.90
2018-09-26T08:09:30.601Z,99.90
2018-09-26T08:11:59.500Z,99.90
2018-09-26T08:14:35.792Z,99.90
2018-09-26T08:17:05.149Z,99.90
2018-09-26T08:19:35.299Z,99.90
2018-09-26T08:22:04.959Z,99.90
2018-09-26T08:24:35.203Z,99.90
2018-09-26T08:27:07.714Z,99.90
2018-09-26T08:29:38.012Z,99.90
2018-09-26T08:32:09.736Z,99.90
2018-09-26T08:34:39.849Z,99.90
2018-09-26T08:37:08.812Z,99.90
2018-09-26T08:39:43.023Z,99.90
2018-09-26T08:42:14.460Z,99.90
2018-09-26T08:44:44.201Z,99.90
2018-09-26T08:47:14.374Z,99.90
2018-09-26T08:49:46.281Z,99.90
2018-09-26T08:52:17.954Z,99.90
2018-09-26T08:54:52.538Z,99.90
2018-09-26T08:57:25.282Z,99.90
2018-09-26T08:59:54.727Z,99.90
2018-09-26T09:02:24.990Z,99.90
2018-09-26T09:04:54.830Z,99.90
2018-09-26T09:07:23.753Z,99.90
2018-09-26T09:09:52.708Z,99.90
2018-09-26T09:12:35.106Z,99.90
2018-09-26T09:15:06.077Z,99.90
2018-09-26T09:17:35.548Z,99.90
2018-09-26T09:20:04.985Z,99.90
2018-09-26T09:22:38.046Z,99.90
2018-09-26T09:25:14.838Z,99.90
2018-09-26T09:27:44.651Z,99.90
2018-09-26T09:30:32.178Z,99.40
2018-09-26T09:33:01.774Z,97.30
2018-09-26T09:38:34.940Z,95.90
2018-09-26T09:41:05.474Z,94.20
2018-09-26T10:01:37.085Z,95.10
2018-09-26T10:04:08.531Z,93.90
2018-09-26T10:06:37.882Z,92.60
2018-09-26T10:09:11.436Z,94.20
2018-09-26T10:11:40.712Z,93.30
2018-09-26T10:14:10.123Z,93.90
2018-09-26T10:16:39.208Z,94.30
2018-09-26T10:19:08.179Z,94.50
2018-09-26T10:21:38.097Z,94.90
2018-09-26T10:24:07.291Z,94.80
2018-09-26T10:26:38.046Z,95.20
2018-09-26T10:29:10.965Z,95.80
2018-09-26T10:31:42.874Z,95.50
2018-09-26T10:34:15.145Z,95.10
2018-09-26T10:37:00.059Z,94.90
2018-09-26T10:39:31.408Z,94.80
2018-09-26T10:42:00.622Z,94.60
2018-09-26T10:44:29.979Z,95.10
2018-09-26T10:46:59.292Z,95.00
2018-09-26T10:49:28.343Z,96.00
2018-09-26T10:51:57.348Z,95.00
2018-09-26T10:54:26.194Z,95.80
2018-09-26T10:56:57.926Z,95.60
2018-09-26T10:59:27.542Z,95.70
2018-09-26T11:01:58.849Z,93.50
2018-09-26T11:04:27.844Z,94.70
2018-09-26T11:06:57.118Z,95.20
2018-09-26T11:09:38.977Z,94.40
2018-09-26T11:12:08.073Z,93.80
2018-09-26T11:14:54.553Z,94.20
2018-09-26T11:17:27.630Z,94.40
2018-09-26T11:20:00.409Z,94.10
2018-09-26T11:22:35.517Z,93.10
2018-09-26T11:25:04.777Z,93.70
2018-09-26T11:27:33.756Z,93.90
2018-09-26T11:30:02.759Z,94.60
2018-09-26T11:32:32.205Z,93.50
2018-09-26T11:35:02.068Z,94.30
2018-09-26T11:37:32.911Z,92.10
2018-09-26T11:40:18.829Z,92.10
2018-09-26T11:42:48.057Z,91.10
2018-09-26T11:45:18.662Z,92.00
2018-09-26T11:47:47.609Z,90.70
2018-09-26T11:50:16.578Z,91.40
2018-09-26T11:52:45.395Z,92.20
2018-09-26T11:55:14.471Z,88.80
2018-09-26T11:57:43.367Z,85.70
2018-09-26T12:00:12.176Z,91.30
2018-09-26T12:02:42.103Z,89.50
2018-09-26T12:05:11.051Z,84.10
2018-09-26T12:07:40.007Z,90.70
2018-09-26T12:10:09.029Z,86.80
2018-09-26T12:12:38.177Z,85.20
2018-09-26T12:15:07.261Z,84.40
2018-09-26T12:17:36.159Z,83.00
2018-09-26T12:20:08.149Z,85.10
2018-09-26T12:22:37.086Z,81.00
2018-09-26T12:25:06.019Z,80.20
2018-09-26T12:27:35.334Z,80.60
2018-09-26T12:30:04.980Z,81.30
2018-09-26T12:32:33.868Z,80.70
2018-09-26T12:35:02.794Z,81.50
2018-09-26T12:37:31.674Z,82.90
2018-09-26T12:40:00.640Z,78.50
2018-09-26T12:42:29.561Z,81.00
2018-09-26T12:44:58.443Z,78.40
2018-09-26T12:47:27.733Z,75.90
2018-09-26T12:49:58.410Z,75.00
2018-09-26T12:52:27.771Z,71.40
2018-09-26T12:54:56.786Z,71.00
2018-09-26T12:57:25.590Z,72.20
2018-09-26T12:59:54.491Z,73.50
2018-09-26T13:02:23.504Z,75.10
2018-09-26T13:04:53.154Z,74.90
2018-09-26T13:07:22.088Z,75.40
2018-09-26T13:09:52.973Z,75.50
2018-09-26T13:12:22.080Z,73.70
2018-09-26T13:14:50.983Z,71.60
2018-09-26T13:17:19.947Z,70.40
2018-09-26T13:19:48.985Z,70.10
2018-09-26T13:22:17.932Z,66.50
2018-09-26T13:24:49.595Z,68.00
2018-09-26T13:27:18.783Z,67.50
2018-09-26T13:29:47.739Z,68.30
2018-09-26T13:32:16.665Z,68.50
2018-09-26T13:34:45.590Z,67.30
2018-09-26T13:37:14.540Z,67.00
2018-09-26T13:39:43.468Z,67.30
2018-09-26T13:42:12.485Z,64.20
2018-09-26T13:44:41.472Z,65.70
2018-09-26T13:47:10.809Z,64.50
2018-09-26T13:49:41.495Z,61.90
2018-09-26T13:52:10.593Z,63.80
2018-09-26T13:57:33.230Z,64.90
2018-09-26T14:00:03.435Z,65.40
2018-09-26T14:02:32.872Z,64.30
2018-09-26T14:05:01.958Z,66.50
2018-09-26T14:07:30.915Z,66.70
2018-09-26T14:09:59.865Z,65.10
2018-09-26T14:12:30.920Z,64.70
2018-09-26T14:14:59.785Z,64.70
2018-09-26T14:17:28.877Z,60.80
2018-09-26T14:20:14.407Z,62.60
2018-09-26T14:22:43.378Z,63.40
2018-09-26T14:25:12.303Z,62.40
2018-09-26T14:27:41.333Z,60.00
2018-09-26T14:30:10.304Z,62.10
2018-09-26T14:32:39.372Z,63.10
2018-09-26T14:35:08.312Z,61.30
2018-09-26T14:37:37.177Z,58.50
2018-09-26T14:40:06.234Z,59.40
2018-09-26T14:42:35.457Z,58.30
2018-09-26T14:45:04.562Z,58.90
2018-09-26T14:47:33.768Z,61.00
2018-09-26T14:50:07.471Z,62.70
2018-09-26T14:52:36.426Z,60.90
2018-09-26T14:55:05.445Z,60.80
2018-09-26T14:57:34.387Z,61.70
2018-09-26T15:00:03.634Z,60.70
2018-09-26T15:02:32.816Z,59.70
2018-09-26T15:05:02.005Z,59.20
2018-09-26T15:07:31.054Z,59.60
2018-09-26T15:10:00.190Z,61.10
2018-09-26T15:12:29.383Z,62.90
2018-09-26T15:14:58.800Z,63.80
2018-09-26T15:17:27.908Z,63.80
2018-09-26T15:19:56.982Z,64.60
2018-09-26T15:22:26.114Z,65.30
2018-09-26T15:24:55.088Z,65.20
2018-09-26T15:27:24.256Z,66.00
2018-09-26T15:29:53.322Z,65.60
2018-09-26T15:32:22.410Z,66.90
2018-09-26T15:34:51.407Z,68.50
2018-09-26T15:37:20.376Z,70.20
2018-09-26T15:39:49.330Z,71.10
2018-09-26T15:42:18.392Z,71.40
2018-09-26T15:44:47.301Z,73.00
2018-09-26T15:47:16.199Z,75.40
2018-09-26T15:49:45.297Z,77.60
2018-09-26T15:52:14.370Z,78.50
2018-09-26T15:54:43.325Z,81.20
2018-09-26T15:57:12.334Z,80.90
2018-09-26T15:59:41.283Z,82.30
2018-09-26T16:02:11.528Z,82.10
2018-09-26T16:04:40.376Z,85.00
2018-09-26T16:07:09.336Z,83.70
2018-09-26T16:09:38.208Z,84.20
2018-09-26T16:12:07.391Z,83.40
2018-09-26T16:14:36.292Z,84.20
2018-09-26T16:17:05.203Z,83.20
2018-09-26T16:19:34.136Z,83.40
2018-09-26T16:22:03.060Z,82.80
2018-09-26T16:24:31.977Z,84.10
2018-09-26T16:27:00.985Z,85.30
2018-09-26T16:29:29.862Z,85.40
2018-09-26T16:31:59.120Z,87.60
2018-09-26T16:34:28.081Z,88.60
2018-09-26T16:36:57.268Z,90.10
2018-09-26T16:39:26.379Z,91.60
2018-09-26T16:41:55.287Z,92.50
2018-09-26T16:44:24.371Z,93.30
2018-09-26T16:46:53.020Z,93.80
2018-09-26T16:49:21.964Z,94.80
2018-09-26T16:51:51.086Z,95.30
2018-09-26T16:54:20.215Z,97.00
2018-09-26T16:56:49.147Z,98.00
2018-09-26T16:59:19.343Z,98.80
2018-09-26T17:01:48.318Z,99.40
2018-09-26T17:04:18.991Z,99.90
2018-09-26T17:06:47.825Z,99.90
2018-09-26T17:09:17.100Z,99.90
2018-09-26T17:11:47.004Z,99.90
2018-09-26T17:14:15.983Z,99.90
2018-09-26T17:16:44.767Z,99.90
2018-09-26T17:19:13.706Z,99.90
2018-09-26T17:21:42.525Z,99.90
2018-09-26T17:24:11.435Z,99.90
2018-09-26T17:26:40.176Z,99.90
2018-09-26T17:29:09.105Z,99.90
2018-09-26T17:31:38.422Z,99.90
2018-09-26T17:34:07.278Z,99.90
2018-09-26T17:36:36.067Z,99.90
2018-09-26T17:39:06.752Z,99.90
2018-09-26T17:41:36.667Z,99.90
2018-09-26T17:44:05.744Z,99.90
2018-09-26T17:46:34.708Z,99.90
2018-09-26T17:49:03.568Z,99.90
2018-09-26T17:51:32.388Z,99.90
2018-09-26T17:54:01.299Z,99.90
2018-09-26T17:56:30.091Z,99.90
2018-09-26T17:58:58.923Z,99.90
2018-09-26T18:01:27.780Z,99.90
2018-09-26T18:03:56.537Z,99.90
2018-09-26T18:06:25.353Z,99.90
2018-09-26T18:08:54.207Z,99.90
2018-09-26T18:11:23.016Z,99.90
2018-09-26T18:13:51.832Z,99.90
2018-09-26T18:16:20.623Z,99.90
2018-09-26T18:18:49.471Z,99.90
2018-09-26T18:21:18.254Z,99.90
2018-09-26T18:23:47.124Z,99.90
2018-09-26T18:26:15.910Z,99.90
2018-09-26T18:28:44.825Z,99.90
2018-09-26T18:31:13.780Z,99.90
2018-09-26T18:33:42.570Z,99.90
2018-09-26T18:36:11.408Z,99.90
2018-09-26T18:38:40.297Z,99.90
2018-09-26T18:41:09.188Z,99.90
2018-09-26T18:43:38.168Z,99.90
2018-09-26T18:46:07.030Z,99.90
2018-09-26T18:48:36.013Z,99.90
2018-09-26T18:51:05.031Z,99.90
2018-09-26T18:53:33.975Z,99.90
2018-09-26T18:56:02.824Z,99.90
2018-09-26T18:58:31.700Z,99.90
2018-09-26T19:01:00.742Z,99.90
2018-09-26T19:03:29.807Z,99.90
2018-09-26T19:05:58.633Z,99.90
2018-09-26T19:08:27.496Z,99.90
2018-09-26T19:10:56.372Z,99.90
2018-09-26T19:13:25.221Z,99.90
2018-09-26T19:15:54.183Z,99.90
2018-09-26T19:18:23.074Z,99.90
2018-09-26T19:20:51.962Z,99.90
2018-09-26T19:23:20.949Z,99.90
2018-09-26T19:25:49.936Z,99.90
2018-09-26T19:28:18.773Z,99.90
2018-09-26T19:30:47.623Z,99.90
2018-09-26T19:33:16.486Z,99.90
2018-09-26T19:35:45.767Z,99.90
2018-09-26T19:38:14.648Z,99.90
2018-09-26T19:40:43.460Z,99.90
2018-09-26T19:43:12.343Z,99.90
2018-09-26T19:45:41.383Z,99.90
2018-09-26T19:48:10.279Z,99.90
2018-09-26T19:50:39.256Z,99.90
2018-09-26T19:53:08.236Z,99.90
2018-09-26T19:55:37.092Z,99.90
2018-09-26T19:58:06.020Z,99.90
2018-09-26T20:00:34.848Z,99.90
2018-09-26T20:03:05.035Z,99.90
2018-09-26T20:05:33.980Z,99.90
2018-09-26T20:08:02.946Z,99.90
2018-09-26T20:10:31.810Z,99.90
2018-09-26T20:13:00.784Z,99.90
2018-09-26T20:15:29.712Z,99.90
2018-09-26T20:17:59.015Z,99.90
2018-09-26T20:20:28.047Z,99.90
2018-09-26T20:22:56.982Z,99.90
2018-09-26T20:25:25.953Z,99.90
2018-09-26T20:27:54.920Z,99.90
2018-09-26T20:30:23.855Z,99.90
2018-09-26T20:32:52.741Z,99.90
2018-09-26T20:35:21.567Z,99.90
2018-09-26T20:37:50.561Z,99.90
2018-09-26T20:40:19.381Z,99.90
2018-09-26T20:42:52.043Z,99.90
2018-09-26T20:45:21.035Z,99.90
2018-09-26T20:47:50.056Z,99.90
2018-09-26T20:50:18.875Z,99.90
2018-09-26T20:52:48.790Z,99.90
2018-09-26T20:55:17.681Z,99.90
2018-09-26T20:57:46.547Z,99.90
2018-09-26T21:00:15.445Z,99.90
2018-09-26T21:02:44.742Z,99.90
2018-09-26T21:05:13.681Z,99.90
2018-09-26T21:07:42.549Z,99.90
2018-09-26T21:10:11.408Z,99.90
2018-09-26T21:12:40.283Z,99.90
2018-09-26T21:15:09.322Z,99.90
2018-09-26T21:17:38.246Z,99.90
2018-09-26T21:20:08.425Z,99.90
2018-09-26T21:22:37.331Z,99.90
2018-09-26T21:25:06.155Z,99.90
2018-09-26T21:27:35.148Z,99.90
2018-09-26T21:30:04.970Z,99.90
2018-09-26T21:32:33.893Z,99.90
2018-09-26T21:35:03.254Z,99.90
2018-09-26T21:37:32.096Z,99.90
2018-09-26T21:40:00.968Z,99.90
2018-09-26T21:42:29.955Z,99.90
2018-09-26T21:44:59.795Z,99.90
2018-09-26T21:47:28.678Z,99.90
2018-09-26T21:49:57.601Z,99.90
2018-09-26T21:52:26.403Z,99.90
2018-09-26T21:54:55.196Z,99.90
2018-09-26T21:57:24.032Z,99.90
2018-09-26T21:59:52.819Z,99.90
2018-09-26T22:02:21.642Z,99.90
2018-09-26T22:04:55.906Z,99.90
2018-09-26T22:07:24.748Z,99.90
2018-09-26T22:09:53.511Z,99.90
2018-09-26T22:12:22.358Z,99.90
2018-09-26T22:14:51.152Z,99.90
2018-09-26T22:17:20.003Z,99.90
2018-09-26T22:19:48.892Z,99.90
2018-09-26T22:22:17.701Z,99.90
2018-09-26T22:24:46.626Z,99.90
2018-09-26T22:27:15.455Z,99.90
2018-09-26T22:29:44.555Z,99.90
2018-09-26T22:32:13.368Z,99.90
2018-09-26T22:34:43.270Z,99.90
2018-09-26T22:37:12.085Z,99.90
2018-09-26T22:39:40.877Z,99.90
2018-09-26T22:42:09.730Z,99.90
2018-09-26T22:44:38.503Z,99.90
2018-09-26T22:47:07.344Z,99.90
2018-09-26T22:49:36.180Z,99.90
2018-09-26T22:52:05.073Z,99.90
2018-09-26T22:54:34.011Z,99.90
2018-09-26T22:57:04.011Z,99.90
2018-09-26T22:59:32.830Z,99.90
2018-09-26T23:02:01.759Z,99.90
2018-09-26T23:04:30.552Z,99.90
2018-09-26T23:06:59.361Z,99.90
2018-09-26T23:09:28.144Z,99.90
2018-09-26T23:11:56.916Z,99.90
2018-09-26T23:14:25.688Z,99.90
2018-09-26T23:16:54.523Z,99.90
2018-09-26T23:19:23.392Z,99.90
2018-09-26T23:21:52.187Z,99.90
2018-09-26T23:24:21.005Z,99.90
2018-09-26T23:26:49.816Z,99.90
2018-09-26T23:29:18.604Z,99.90
2018-09-26T23:31:47.436Z,99.90
2018-09-26T23:34:16.264Z,99.90
2018-09-26T23:36:45.072Z,99.90
2018-09-26T23:39:13.902Z,99.90
2018-09-26T23:41:42.678Z,99.90
2018-09-26T23:44:11.511Z,99.90
2018-09-26T23:46:40.297Z,99.90
2018-09-26T23:49:09.419Z,99.90
2018-09-26T23:51:38.287Z,99.90
2018-09-26T23:54:07.079Z,99.90
2018-09-26T23:56:35.891Z,99.90
2018-09-26T23:59:05.756Z,99.90
